sensor_id;sensor_type;location;lat;lon;timestamp;P1;durP1;ratioP1;P2;durP2;ratioP2
3189;SDS011;1606;51.946;10.558;2023-11-22T00:00:10;10.27;;;5.77;;
3189;SDS011;1606;51.946;10.558;2023-11-22T00:02:39;9.40;;;4.73;;
3189;SDS011;1606;51.946;10.558;2023-11-22T00:05:07;10.10;;;4.83;;
3189;SDS011;1606;51.946;10.558;2023-11-22T00:07:37;9.97;;;4.60;;
3189;SDS011;1606;51.946;10.558;2023-11-22T00:10:07;8.30;;;4.30;;
3189;SDS011;1606;51.946;10.558;2023-11-22T00:12:36;11.43;;;5.27;;
3189;SDS011;1606;51.946;10.558;2023-11-22T00:15:05;8.87;;;4.20;;
3189;SDS011;1606;51.946;10.558;2023-11-22T00:17:34;9.90;;;4.90;;
3189;SDS011;1606;51.946;10.558;2023-11-22T00:20:03;14.93;;;6.20;;
3189;SDS011;1606;51.946;10.558;2023-11-22T00:22:32;10.03;;;5.03;;
3189;SDS011;1606;51.946;10.558;2023-11-22T00:25:00;9.47;;;4.23;;
3189;SDS011;1606;51.946;10.558;2023-11-22T00:27:30;9.10;;;4.77;;
3189;SDS011;1606;51.946;10.558;2023-11-22T00:29:59;11.53;;;4.40;;
3189;SDS011;1606;51.946;10.558;2023-11-22T00:32:27;9.33;;;3.97;;
3189;SDS011;1606;51.946;10.558;2023-11-22T00:34:55;7.53;;;4.10;;
3189;SDS011;1606;51.946;10.558;2023-11-22T00:37:24;11.00;;;4.77;;
3189;SDS011;1606;51.946;10.558;2023-11-22T00:39:51;8.80;;;4.17;;
3189;SDS011;1606;51.946;10.558;2023-11-22T00:42:18;10.27;;;5.63;;
3189;SDS011;1606;51.946;10.558;2023-11-22T00:44:48;9.27;;;4.43;;
3189;SDS011;1606;51.946;10.558;2023-11-22T00:47:17;8.00;;;3.90;;
3189;SDS011;1606;51.946;10.558;2023-11-22T00:49:44;8.00;;;4.03;;
3189;SDS011;1606;51.946;10.558;2023-11-22T00:52:12;9.70;;;4.50;;
3189;SDS011;1606;51.946;10.558;2023-11-22T00:54:40;8.33;;;4.10;;
3189;SDS011;1606;51.946;10.558;2023-11-22T00:57:08;8.90;;;4.00;;
3189;SDS011;1606;51.946;10.558;2023-11-22T00:59:36;8.83;;;4.17;;
3189;SDS011;1606;51.946;10.558;2023-11-22T01:02:06;9.70;;;4.47;;
3189;SDS011;1606;51.946;10.558;2023-11-22T01:04:35;10.63;;;4.30;;
3189;SDS011;1606;51.946;10.558;2023-11-22T01:07:03;8.43;;;3.50;;
3189;SDS011;1606;51.946;10.558;2023-11-22T01:09:31;7.90;;;4.13;;
3189;SDS011;1606;51.946;10.558;2023-11-22T01:12:00;8.13;;;3.90;;
3189;SDS011;1606;51.946;10.558;2023-11-22T01:14:28;9.50;;;4.00;;
3189;SDS011;1606;51.946;10.558;2023-11-22T01:16:56;10.60;;;4.53;;
3189;SDS011;1606;51.946;10.558;2023-11-22T01:19:25;10.10;;;4.20;;
3189;SDS011;1606;51.946;10.558;2023-11-22T01:21:53;8.40;;;4.33;;
3189;SDS011;1606;51.946;10.558;2023-11-22T01:24:21;10.00;;;3.92;;
3189;SDS011;1606;51.946;10.558;2023-11-22T01:26:49;9.80;;;4.17;;
3189;SDS011;1606;51.946;10.558;2023-11-22T01:29:17;11.20;;;4.23;;
3189;SDS011;1606;51.946;10.558;2023-11-22T01:31:45;9.23;;;4.30;;
3189;SDS011;1606;51.946;10.558;2023-11-22T01:34:13;11.10;;;3.93;;
3189;SDS011;1606;51.946;10.558;2023-11-22T01:36:44;8.60;;;3.80;;
3189;SDS011;1606;51.946;10.558;2023-11-22T01:39:12;8.37;;;4.10;;
3189;SDS011;1606;51.946;10.558;2023-11-22T01:41:41;10.33;;;4.10;;
3189;SDS011;1606;51.946;10.558;2023-11-22T01:44:11;7.80;;;3.83;;
3189;SDS011;1606;51.946;10.558;2023-11-22T01:46:39;8.13;;;3.40;;
3189;SDS011;1606;51.946;10.558;2023-11-22T01:49:08;9.73;;;3.97;;
3189;SDS011;1606;51.946;10.558;2023-11-22T01:51:37;8.97;;;4.37;;
3189;SDS011;1606;51.946;10.558;2023-11-22T01:54:07;8.53;;;4.00;;
3189;SDS011;1606;51.946;10.558;2023-11-22T01:56:36;9.50;;;3.97;;
3189;SDS011;1606;51.946;10.558;2023-11-22T01:59:05;9.20;;;3.80;;
3189;SDS011;1606;51.946;10.558;2023-11-22T02:01:34;7.70;;;3.90;;
3189;SDS011;1606;51.946;10.558;2023-11-22T02:04:03;8.80;;;3.90;;
3189;SDS011;1606;51.946;10.558;2023-11-22T02:06:32;8.57;;;4.33;;
3189;SDS011;1606;51.946;10.558;2023-11-22T02:09:02;9.60;;;4.40;;
3189;SDS011;1606;51.946;10.558;2023-11-22T02:11:31;8.77;;;3.80;;
3189;SDS011;1606;51.946;10.558;2023-11-22T02:13:59;10.83;;;4.20;;
3189;SDS011;1606;51.946;10.558;2023-11-22T02:16:27;8.13;;;3.50;;
3189;SDS011;1606;51.946;10.558;2023-11-22T02:18:55;9.90;;;5.93;;
3189;SDS011;1606;51.946;10.558;2023-11-22T02:21:23;8.10;;;3.70;;
3189;SDS011;1606;51.946;10.558;2023-11-22T02:23:52;9.50;;;4.50;;
3189;SDS011;1606;51.946;10.558;2023-11-22T02:26:20;8.43;;;3.97;;
3189;SDS011;1606;51.946;10.558;2023-11-22T02:28:48;7.87;;;4.17;;
3189;SDS011;1606;51.946;10.558;2023-11-22T02:31:16;9.90;;;4.87;;
3189;SDS011;1606;51.946;10.558;2023-11-22T02:33:45;11.90;;;4.87;;
3189;SDS011;1606;51.946;10.558;2023-11-22T02:36:13;9.70;;;3.93;;
3189;SDS011;1606;51.946;10.558;2023-11-22T02:38:41;10.20;;;3.90;;
3189;SDS011;1606;51.946;10.558;2023-11-22T02:41:13;11.90;;;4.13;;
3189;SDS011;1606;51.946;10.558;2023-11-22T02:43:41;10.23;;;4.20;;
3189;SDS011;1606;51.946;10.558;2023-11-22T02:46:09;11.70;;;4.00;;
3189;SDS011;1606;51.946;10.558;2023-11-22T02:48:37;10.10;;;4.40;;
3189;SDS011;1606;51.946;10.558;2023-11-22T02:51:05;8.90;;;3.60;;
3189;SDS011;1606;51.946;10.558;2023-11-22T02:53:33;9.17;;;3.87;;
3189;SDS011;1606;51.946;10.558;2023-11-22T02:56:01;7.17;;;3.40;;
3189;SDS011;1606;51.946;10.558;2023-11-22T02:58:31;8.43;;;3.43;;
3189;SDS011;1606;51.946;10.558;2023-11-22T03:00:59;8.07;;;3.50;;
3189;SDS011;1606;51.946;10.558;2023-11-22T03:03:27;10.97;;;4.30;;
3189;SDS011;1606;51.946;10.558;2023-11-22T03:05:57;10.43;;;4.93;;
3189;SDS011;1606;51.946;10.558;2023-11-22T03:08:25;10.40;;;4.20;;
3189;SDS011;1606;51.946;10.558;2023-11-22T03:10:53;13.30;;;4.53;;
3189;SDS011;1606;51.946;10.558;2023-11-22T03:13:21;8.30;;;3.80;;
3189;SDS011;1606;51.946;10.558;2023-11-22T03:15:50;9.27;;;4.10;;
3189;SDS011;1606;51.946;10.558;2023-11-22T03:18:18;11.10;;;4.27;;
3189;SDS011;1606;51.946;10.558;2023-11-22T03:20:47;8.97;;;4.57;;
3189;SDS011;1606;51.946;10.558;2023-11-22T03:23:20;9.20;;;4.20;;
3189;SDS011;1606;51.946;10.558;2023-11-22T03:25:48;8.50;;;3.90;;
3189;SDS011;1606;51.946;10.558;2023-11-22T03:28:16;8.57;;;4.60;;
3189;SDS011;1606;51.946;10.558;2023-11-22T03:30:44;7.30;;;3.10;;
3189;SDS011;1606;51.946;10.558;2023-11-22T03:33:13;7.80;;;3.23;;
3189;SDS011;1606;51.946;10.558;2023-11-22T03:35:41;9.53;;;4.97;;
3189;SDS011;1606;51.946;10.558;2023-11-22T03:38:09;11.20;;;4.57;;
3189;SDS011;1606;51.946;10.558;2023-11-22T03:40:37;10.70;;;4.47;;
3189;SDS011;1606;51.946;10.558;2023-11-22T03:43:06;11.13;;;4.17;;
3189;SDS011;1606;51.946;10.558;2023-11-22T03:45:36;9.53;;;4.40;;
3189;SDS011;1606;51.946;10.558;2023-11-22T03:48:04;10.30;;;4.37;;
3189;SDS011;1606;51.946;10.558;2023-11-22T03:50:34;8.97;;;3.93;;
3189;SDS011;1606;51.946;10.558;2023-11-22T03:53:02;7.73;;;4.07;;
3189;SDS011;1606;51.946;10.558;2023-11-22T03:55:30;8.47;;;3.80;;
3189;SDS011;1606;51.946;10.558;2023-11-22T03:57:58;9.23;;;3.90;;
3189;SDS011;1606;51.946;10.558;2023-11-22T04:00:26;8.23;;;4.17;;
3189;SDS011;1606;51.946;10.558;2023-11-22T04:02:54;9.60;;;3.90;;
3189;SDS011;1606;51.946;10.558;2023-11-22T04:05:25;9.83;;;3.90;;
3189;SDS011;1606;51.946;10.558;2023-11-22T04:07:55;10.33;;;5.10;;
3189;SDS011;1606;51.946;10.558;2023-11-22T04:10:23;11.17;;;4.37;;
3189;SDS011;1606;51.946;10.558;2023-11-22T04:12:51;7.90;;;3.90;;
3189;SDS011;1606;51.946;10.558;2023-11-22T04:15:19;9.07;;;3.80;;
3189;SDS011;1606;51.946;10.558;2023-11-22T04:17:47;8.80;;;3.67;;
3189;SDS011;1606;51.946;10.558;2023-11-22T04:20:15;9.57;;;3.97;;
3189;SDS011;1606;51.946;10.558;2023-11-22T04:22:44;9.20;;;3.80;;
3189;SDS011;1606;51.946;10.558;2023-11-22T04:25:14;12.80;;;4.00;;
3189;SDS011;1606;51.946;10.558;2023-11-22T04:27:42;8.23;;;4.07;;
3189;SDS011;1606;51.946;10.558;2023-11-22T04:30:10;8.67;;;3.47;;
3189;SDS011;1606;51.946;10.558;2023-11-22T04:32:40;8.33;;;3.80;;
3189;SDS011;1606;51.946;10.558;2023-11-22T04:35:08;9.73;;;3.80;;
3189;SDS011;1606;51.946;10.558;2023-11-22T04:37:37;8.63;;;3.63;;
3189;SDS011;1606;51.946;10.558;2023-11-22T04:40:06;12.30;;;3.87;;
3189;SDS011;1606;51.946;10.558;2023-11-22T04:42:36;10.40;;;4.87;;
3189;SDS011;1606;51.946;10.558;2023-11-22T04:45:05;8.80;;;4.50;;
3189;SDS011;1606;51.946;10.558;2023-11-22T04:47:33;10.30;;;4.10;;
3189;SDS011;1606;51.946;10.558;2023-11-22T04:50:02;8.27;;;4.30;;
3189;SDS011;1606;51.946;10.558;2023-11-22T04:52:32;8.83;;;3.70;;
3189;SDS011;1606;51.946;10.558;2023-11-22T04:55:00;9.70;;;4.60;;
3189;SDS011;1606;51.946;10.558;2023-11-22T04:57:27;10.23;;;3.90;;
3189;SDS011;1606;51.946;10.558;2023-11-22T04:59:57;10.20;;;3.67;;
3189;SDS011;1606;51.946;10.558;2023-11-22T05:02:26;9.43;;;4.00;;
3189;SDS011;1606;51.946;10.558;2023-11-22T05:04:54;12.50;;;5.37;;
3189;SDS011;1606;51.946;10.558;2023-11-22T05:07:23;8.97;;;4.10;;
3189;SDS011;1606;51.946;10.558;2023-11-22T05:09:51;9.27;;;4.40;;
3189;SDS011;1606;51.946;10.558;2023-11-22T05:12:19;9.13;;;4.93;;
3189;SDS011;1606;51.946;10.558;2023-11-22T05:14:47;11.03;;;3.50;;
3189;SDS011;1606;51.946;10.558;2023-11-22T05:17:16;8.93;;;4.10;;
3189;SDS011;1606;51.946;10.558;2023-11-22T05:19:44;8.90;;;3.60;;
3189;SDS011;1606;51.946;10.558;2023-11-22T05:22:12;8.30;;;4.27;;
3189;SDS011;1606;51.946;10.558;2023-11-22T05:24:40;11.90;;;4.23;;
3189;SDS011;1606;51.946;10.558;2023-11-22T05:27:08;10.10;;;4.27;;
3189;SDS011;1606;51.946;10.558;2023-11-22T05:29:36;8.90;;;5.17;;
3189;SDS011;1606;51.946;10.558;2023-11-22T05:32:16;11.40;;;4.00;;
3189;SDS011;1606;51.946;10.558;2023-11-22T05:34:44;8.90;;;4.60;;
3189;SDS011;1606;51.946;10.558;2023-11-22T05:37:13;13.37;;;4.13;;
3189;SDS011;1606;51.946;10.558;2023-11-22T05:39:41;8.97;;;4.20;;
3189;SDS011;1606;51.946;10.558;2023-11-22T05:42:09;8.60;;;4.27;;
3189;SDS011;1606;51.946;10.558;2023-11-22T05:44:38;8.60;;;4.40;;
3189;SDS011;1606;51.946;10.558;2023-11-22T05:47:06;11.27;;;4.67;;
3189;SDS011;1606;51.946;10.558;2023-11-22T05:49:35;9.97;;;4.97;;
3189;SDS011;1606;51.946;10.558;2023-11-22T05:52:04;9.20;;;4.70;;
3189;SDS011;1606;51.946;10.558;2023-11-22T05:54:32;9.80;;;5.40;;
3189;SDS011;1606;51.946;10.558;2023-11-22T05:57:00;9.90;;;5.33;;
3189;SDS011;1606;51.946;10.558;2023-11-22T05:59:28;10.00;;;5.10;;
3189;SDS011;1606;51.946;10.558;2023-11-22T06:01:57;14.80;;;5.10;;
3189;SDS011;1606;51.946;10.558;2023-11-22T06:04:25;12.50;;;6.00;;
3189;SDS011;1606;51.946;10.558;2023-11-22T06:06:54;15.33;;;4.90;;
3189;SDS011;1606;51.946;10.558;2023-11-22T06:09:23;14.00;;;5.77;;
3189;SDS011;1606;51.946;10.558;2023-11-22T06:11:51;9.90;;;4.90;;
3189;SDS011;1606;51.946;10.558;2023-11-22T06:14:21;13.13;;;5.80;;
3189;SDS011;1606;51.946;10.558;2023-11-22T06:16:48;13.67;;;4.53;;
3189;SDS011;1606;51.946;10.558;2023-11-22T06:19:16;12.30;;;4.63;;
3189;SDS011;1606;51.946;10.558;2023-11-22T06:21:44;9.93;;;4.33;;
3189;SDS011;1606;51.946;10.558;2023-11-22T06:24:14;13.00;;;5.37;;
3189;SDS011;1606;51.946;10.558;2023-11-22T06:26:43;8.67;;;4.13;;
3189;SDS011;1606;51.946;10.558;2023-11-22T06:29:13;11.57;;;4.60;;
3189;SDS011;1606;51.946;10.558;2023-11-22T06:31:42;9.60;;;4.60;;
3189;SDS011;1606;51.946;10.558;2023-11-22T06:34:10;9.63;;;4.53;;
3189;SDS011;1606;51.946;10.558;2023-11-22T06:36:38;8.47;;;3.90;;
3189;SDS011;1606;51.946;10.558;2023-11-22T06:39:06;9.27;;;4.60;;
3189;SDS011;1606;51.946;10.558;2023-11-22T06:41:36;11.20;;;4.93;;
3189;SDS011;1606;51.946;10.558;2023-11-22T06:44:05;13.33;;;4.70;;
3189;SDS011;1606;51.946;10.558;2023-11-22T06:46:33;9.37;;;4.90;;
3189;SDS011;1606;51.946;10.558;2023-11-22T06:49:01;8.77;;;4.67;;
3189;SDS011;1606;51.946;10.558;2023-11-22T06:51:29;9.53;;;4.23;;
3189;SDS011;1606;51.946;10.558;2023-11-22T06:53:58;11.80;;;4.77;;
3189;SDS011;1606;51.946;10.558;2023-11-22T06:56:27;9.60;;;4.13;;
3189;SDS011;1606;51.946;10.558;2023-11-22T06:58:57;12.70;;;5.23;;
3189;SDS011;1606;51.946;10.558;2023-11-22T07:01:25;10.10;;;5.13;;
3189;SDS011;1606;51.946;10.558;2023-11-22T07:03:53;9.30;;;4.87;;
3189;SDS011;1606;51.946;10.558;2023-11-22T07:06:21;8.80;;;4.13;;
3189;SDS011;1606;51.946;10.558;2023-11-22T07:08:49;11.50;;;5.00;;
3189;SDS011;1606;51.946;10.558;2023-11-22T07:11:21;9.67;;;5.00;;
3189;SDS011;1606;51.946;10.558;2023-11-22T07:13:50;12.40;;;5.20;;
3189;SDS011;1606;51.946;10.558;2023-11-22T07:16:20;9.33;;;5.37;;
3189;SDS011;1606;51.946;10.558;2023-11-22T07:18:49;9.90;;;4.53;;
3189;SDS011;1606;51.946;10.558;2023-11-22T07:21:17;10.07;;;5.23;;
3189;SDS011;1606;51.946;10.558;2023-11-22T07:23:47;10.20;;;5.30;;
3189;SDS011;1606;51.946;10.558;2023-11-22T07:26:18;11.53;;;5.13;;
3189;SDS011;1606;51.946;10.558;2023-11-22T07:28:46;9.47;;;5.37;;
3189;SDS011;1606;51.946;10.558;2023-11-22T07:31:17;9.20;;;4.50;;
3189;SDS011;1606;51.946;10.558;2023-11-22T07:33:47;9.60;;;5.60;;
3189;SDS011;1606;51.946;10.558;2023-11-22T07:36:15;10.33;;;5.10;;
3189;SDS011;1606;51.946;10.558;2023-11-22T07:38:43;10.00;;;5.03;;
3189;SDS011;1606;51.946;10.558;2023-11-22T07:41:11;12.20;;;5.63;;
3189;SDS011;1606;51.946;10.558;2023-11-22T07:43:39;11.20;;;5.53;;
3189;SDS011;1606;51.946;10.558;2023-11-22T07:46:07;13.83;;;5.50;;
3189;SDS011;1606;51.946;10.558;2023-11-22T07:48:39;10.73;;;5.87;;
3189;SDS011;1606;51.946;10.558;2023-11-22T07:51:09;10.30;;;5.77;;
3189;SDS011;1606;51.946;10.558;2023-11-22T07:53:37;11.57;;;7.20;;
3189;SDS011;1606;51.946;10.558;2023-11-22T07:56:07;13.47;;;5.10;;
3189;SDS011;1606;51.946;10.558;2023-11-22T07:58:36;12.80;;;5.50;;
3189;SDS011;1606;51.946;10.558;2023-11-22T08:01:04;10.90;;;5.67;;
3189;SDS011;1606;51.946;10.558;2023-11-22T08:03:39;10.93;;;6.07;;
3189;SDS011;1606;51.946;10.558;2023-11-22T08:06:15;11.23;;;5.23;;
3189;SDS011;1606;51.946;10.558;2023-11-22T08:08:43;14.60;;;6.30;;
3189;SDS011;1606;51.946;10.558;2023-11-22T08:11:13;11.80;;;6.27;;
3189;SDS011;1606;51.946;10.558;2023-11-22T08:13:42;17.07;;;6.90;;
3189;SDS011;1606;51.946;10.558;2023-11-22T08:16:11;17.60;;;6.53;;
3189;SDS011;1606;51.946;10.558;2023-11-22T08:18:40;15.30;;;6.20;;
3189;SDS011;1606;51.946;10.558;2023-11-22T08:21:10;18.60;;;7.87;;
3189;SDS011;1606;51.946;10.558;2023-11-22T08:23:40;14.30;;;7.70;;
3189;SDS011;1606;51.946;10.558;2023-11-22T08:26:08;13.03;;;7.27;;
3189;SDS011;1606;51.946;10.558;2023-11-22T08:28:39;14.43;;;8.73;;
3189;SDS011;1606;51.946;10.558;2023-11-22T08:31:07;14.03;;;7.70;;
3189;SDS011;1606;51.946;10.558;2023-11-22T08:33:36;14.33;;;8.30;;
3189;SDS011;1606;51.946;10.558;2023-11-22T08:36:05;14.13;;;6.57;;
3189;SDS011;1606;51.946;10.558;2023-11-22T08:38:34;15.30;;;7.93;;
3189;SDS011;1606;51.946;10.558;2023-11-22T08:41:04;17.57;;;9.50;;
3189;SDS011;1606;51.946;10.558;2023-11-22T08:43:33;16.30;;;9.83;;
3189;SDS011;1606;51.946;10.558;2023-11-22T08:46:02;14.57;;;8.97;;
3189;SDS011;1606;51.946;10.558;2023-11-22T08:48:40;21.43;;;10.70;;
3189;SDS011;1606;51.946;10.558;2023-11-22T08:51:09;16.10;;;9.40;;
3189;SDS011;1606;51.946;10.558;2023-11-22T08:53:38;16.83;;;9.20;;
3189;SDS011;1606;51.946;10.558;2023-11-22T08:56:08;16.13;;;9.20;;
3189;SDS011;1606;51.946;10.558;2023-11-22T08:58:37;18.30;;;10.37;;
3189;SDS011;1606;51.946;10.558;2023-11-22T09:01:06;23.50;;;12.27;;
3189;SDS011;1606;51.946;10.558;2023-11-22T09:03:34;18.20;;;11.00;;
3189;SDS011;1606;51.946;10.558;2023-11-22T09:06:03;18.00;;;9.50;;
3189;SDS011;1606;51.946;10.558;2023-11-22T09:08:34;16.87;;;10.70;;
3189;SDS011;1606;51.946;10.558;2023-11-22T09:11:02;13.67;;;8.33;;
3189;SDS011;1606;51.946;10.558;2023-11-22T09:13:34;17.50;;;9.50;;
3189;SDS011;1606;51.946;10.558;2023-11-22T09:16:02;15.40;;;9.67;;
3189;SDS011;1606;51.946;10.558;2023-11-22T09:18:32;15.53;;;9.17;;
3189;SDS011;1606;51.946;10.558;2023-11-22T09:21:00;18.17;;;10.17;;
3189;SDS011;1606;51.946;10.558;2023-11-22T09:23:28;20.33;;;11.33;;
3189;SDS011;1606;51.946;10.558;2023-11-22T09:25:56;16.07;;;10.87;;
3189;SDS011;1606;51.946;10.558;2023-11-22T09:28:25;16.10;;;10.00;;
3189;SDS011;1606;51.946;10.558;2023-11-22T09:30:54;17.17;;;9.83;;
3189;SDS011;1606;51.946;10.558;2023-11-22T09:33:27;17.03;;;10.10;;
3189;SDS011;1606;51.946;10.558;2023-11-22T09:35:55;15.87;;;11.17;;
3189;SDS011;1606;51.946;10.558;2023-11-22T09:38:24;19.67;;;13.20;;
3189;SDS011;1606;51.946;10.558;2023-11-22T09:40:53;16.87;;;9.83;;
3189;SDS011;1606;51.946;10.558;2023-11-22T09:43:21;17.77;;;12.70;;
3189;SDS011;1606;51.946;10.558;2023-11-22T09:45:52;16.33;;;10.93;;
3189;SDS011;1606;51.946;10.558;2023-11-22T09:48:25;17.83;;;11.17;;
3189;SDS011;1606;51.946;10.558;2023-11-22T09:50:57;14.73;;;8.80;;
3189;SDS011;1606;51.946;10.558;2023-11-22T09:53:30;15.93;;;9.87;;
3189;SDS011;1606;51.946;10.558;2023-11-22T09:56:00;17.40;;;11.20;;
3189;SDS011;1606;51.946;10.558;2023-11-22T09:58:29;17.80;;;10.30;;
3189;SDS011;1606;51.946;10.558;2023-11-22T10:00:59;15.80;;;9.73;;
3189;SDS011;1606;51.946;10.558;2023-11-22T10:03:29;16.57;;;10.67;;
3189;SDS011;1606;51.946;10.558;2023-11-22T10:06:00;17.13;;;11.37;;
3189;SDS011;1606;51.946;10.558;2023-11-22T10:08:31;17.27;;;9.33;;
3189;SDS011;1606;51.946;10.558;2023-11-22T10:10:59;16.40;;;10.30;;
3189;SDS011;1606;51.946;10.558;2023-11-22T10:13:27;16.37;;;9.50;;
3189;SDS011;1606;51.946;10.558;2023-11-22T10:15:56;14.53;;;9.83;;
3189;SDS011;1606;51.946;10.558;2023-11-22T10:18:40;21.50;;;11.30;;
3189;SDS011;1606;51.946;10.558;2023-11-22T10:21:19;16.10;;;10.53;;
3189;SDS011;1606;51.946;10.558;2023-11-22T10:23:48;16.70;;;9.77;;
3189;SDS011;1606;51.946;10.558;2023-11-22T10:26:18;15.97;;;9.63;;
3189;SDS011;1606;51.946;10.558;2023-11-22T10:28:46;13.90;;;8.43;;
3189;SDS011;1606;51.946;10.558;2023-11-22T10:31:17;15.20;;;9.90;;
3189;SDS011;1606;51.946;10.558;2023-11-22T10:33:48;14.63;;;9.30;;
3189;SDS011;1606;51.946;10.558;2023-11-22T10:36:16;17.50;;;10.50;;
3189;SDS011;1606;51.946;10.558;2023-11-22T10:38:46;14.80;;;9.10;;
3189;SDS011;1606;51.946;10.558;2023-11-22T10:41:15;14.73;;;9.60;;
3189;SDS011;1606;51.946;10.558;2023-11-22T10:43:44;16.43;;;9.80;;
3189;SDS011;1606;51.946;10.558;2023-11-22T10:46:12;17.83;;;11.10;;
3189;SDS011;1606;51.946;10.558;2023-11-22T10:48:41;16.00;;;9.40;;
3189;SDS011;1606;51.946;10.558;2023-11-22T10:51:11;14.77;;;9.93;;
3189;SDS011;1606;51.946;10.558;2023-11-22T10:53:42;16.58;;;9.90;;
3189;SDS011;1606;51.946;10.558;2023-11-22T10:56:16;15.30;;;9.63;;
3189;SDS011;1606;51.946;10.558;2023-11-22T10:58:48;19.10;;;9.20;;
3189;SDS011;1606;51.946;10.558;2023-11-22T11:01:18;14.60;;;10.00;;
3189;SDS011;1606;51.946;10.558;2023-11-22T11:03:51;14.77;;;10.00;;
3189;SDS011;1606;51.946;10.558;2023-11-22T11:06:26;14.20;;;8.70;;
3189;SDS011;1606;51.946;10.558;2023-11-22T11:09:00;15.10;;;9.40;;
3189;SDS011;1606;51.946;10.558;2023-11-22T11:11:32;16.90;;;9.13;;
3189;SDS011;1606;51.946;10.558;2023-11-22T11:14:01;16.50;;;9.90;;
3189;SDS011;1606;51.946;10.558;2023-11-22T11:16:31;15.73;;;10.10;;
3189;SDS011;1606;51.946;10.558;2023-11-22T11:19:04;16.57;;;9.80;;
3189;SDS011;1606;51.946;10.558;2023-11-22T11:21:35;17.67;;;10.03;;
3189;SDS011;1606;51.946;10.558;2023-11-22T11:24:03;14.67;;;10.37;;
3189;SDS011;1606;51.946;10.558;2023-11-22T11:26:32;18.40;;;9.33;;
3189;SDS011;1606;51.946;10.558;2023-11-22T11:29:02;15.67;;;9.20;;
3189;SDS011;1606;51.946;10.558;2023-11-22T11:31:31;15.60;;;9.20;;
3189;SDS011;1606;51.946;10.558;2023-11-22T11:34:01;16.00;;;9.27;;
3189;SDS011;1606;51.946;10.558;2023-11-22T11:36:32;15.53;;;10.40;;
3189;SDS011;1606;51.946;10.558;2023-11-22T11:39:05;16.20;;;9.20;;
3189;SDS011;1606;51.946;10.558;2023-11-22T11:41:37;16.20;;;10.60;;
3189;SDS011;1606;51.946;10.558;2023-11-22T11:44:07;19.63;;;9.70;;
3189;SDS011;1606;51.946;10.558;2023-11-22T11:46:36;17.53;;;9.97;;
3189;SDS011;1606;51.946;10.558;2023-11-22T11:49:06;16.60;;;9.97;;
3189;SDS011;1606;51.946;10.558;2023-11-22T11:51:36;14.77;;;8.90;;
3189;SDS011;1606;51.946;10.558;2023-11-22T11:54:05;18.00;;;11.23;;
3189;SDS011;1606;51.946;10.558;2023-11-22T11:56:35;16.70;;;10.67;;
3189;SDS011;1606;51.946;10.558;2023-11-22T11:59:04;14.70;;;8.83;;
3189;SDS011;1606;51.946;10.558;2023-11-22T12:01:33;14.95;;;10.30;;
3189;SDS011;1606;51.946;10.558;2023-11-22T12:04:01;13.90;;;8.90;;
3189;SDS011;1606;51.946;10.558;2023-11-22T12:06:30;13.83;;;9.03;;
3189;SDS011;1606;51.946;10.558;2023-11-22T12:09:04;18.27;;;10.63;;
3189;SDS011;1606;51.946;10.558;2023-11-22T12:11:32;15.50;;;10.43;;
3189;SDS011;1606;51.946;10.558;2023-11-22T12:14:00;16.93;;;10.37;;
3189;SDS011;1606;51.946;10.558;2023-11-22T12:16:30;17.30;;;8.90;;
3189;SDS011;1606;51.946;10.558;2023-11-22T12:19:00;14.77;;;9.73;;
3189;SDS011;1606;51.946;10.558;2023-11-22T12:21:29;16.10;;;10.43;;
3189;SDS011;1606;51.946;10.558;2023-11-22T12:23:59;14.53;;;8.97;;
3189;SDS011;1606;51.946;10.558;2023-11-22T12:26:30;14.87;;;9.73;;
3189;SDS011;1606;51.946;10.558;2023-11-22T12:29:00;17.33;;;9.87;;
3189;SDS011;1606;51.946;10.558;2023-11-22T12:31:32;15.63;;;9.10;;
3189;SDS011;1606;51.946;10.558;2023-11-22T12:34:02;14.37;;;10.00;;
3189;SDS011;1606;51.946;10.558;2023-11-22T12:36:33;15.90;;;9.87;;
3189;SDS011;1606;51.946;10.558;2023-11-22T12:39:02;16.67;;;9.63;;
3189;SDS011;1606;51.946;10.558;2023-11-22T12:41:36;13.80;;;8.40;;
3189;SDS011;1606;51.946;10.558;2023-11-22T12:44:08;14.30;;;9.20;;
3189;SDS011;1606;51.946;10.558;2023-11-22T12:46:46;13.63;;;9.47;;
3189;SDS011;1606;51.946;10.558;2023-11-22T12:49:18;13.93;;;9.30;;
3189;SDS011;1606;51.946;10.558;2023-11-22T12:51:46;15.40;;;9.70;;
3189;SDS011;1606;51.946;10.558;2023-11-22T12:54:15;15.23;;;9.67;;
3189;SDS011;1606;51.946;10.558;2023-11-22T12:56:48;14.67;;;9.67;;
3189;SDS011;1606;51.946;10.558;2023-11-22T12:59:26;14.90;;;9.00;;
3189;SDS011;1606;51.946;10.558;2023-11-22T13:01:57;14.90;;;8.90;;
3189;SDS011;1606;51.946;10.558;2023-11-22T13:04:27;14.60;;;9.70;;
3189;SDS011;1606;51.946;10.558;2023-11-22T13:06:57;14.70;;;8.80;;
3189;SDS011;1606;51.946;10.558;2023-11-22T13:09:27;15.37;;;10.03;;
3189;SDS011;1606;51.946;10.558;2023-11-22T13:11:57;16.93;;;10.40;;
3189;SDS011;1606;51.946;10.558;2023-11-22T13:14:25;14.10;;;10.10;;
3189;SDS011;1606;51.946;10.558;2023-11-22T13:16:58;14.10;;;9.53;;
3189;SDS011;1606;51.946;10.558;2023-11-22T13:19:26;20.23;;;9.80;;
3189;SDS011;1606;51.946;10.558;2023-11-22T13:21:54;13.07;;;9.70;;
3189;SDS011;1606;51.946;10.558;2023-11-22T13:24:22;12.83;;;8.50;;
3189;SDS011;1606;51.946;10.558;2023-11-22T13:26:50;16.17;;;9.50;;
3189;SDS011;1606;51.946;10.558;2023-11-22T13:29:20;14.93;;;9.27;;
3189;SDS011;1606;51.946;10.558;2023-11-22T13:31:48;12.60;;;8.70;;
3189;SDS011;1606;51.946;10.558;2023-11-22T13:34:16;15.03;;;9.53;;
3189;SDS011;1606;51.946;10.558;2023-11-22T13:36:44;15.97;;;9.57;;
3189;SDS011;1606;51.946;10.558;2023-11-22T13:39:12;14.87;;;10.20;;
3189;SDS011;1606;51.946;10.558;2023-11-22T13:41:41;19.20;;;10.20;;
3189;SDS011;1606;51.946;10.558;2023-11-22T13:44:09;15.10;;;10.10;;
3189;SDS011;1606;51.946;10.558;2023-11-22T13:46:39;15.80;;;10.47;;
3189;SDS011;1606;51.946;10.558;2023-11-22T13:49:07;16.63;;;9.97;;
3189;SDS011;1606;51.946;10.558;2023-11-22T13:51:35;16.87;;;9.73;;
3189;SDS011;1606;51.946;10.558;2023-11-22T13:54:03;16.73;;;10.00;;
3189;SDS011;1606;51.946;10.558;2023-11-22T13:56:31;16.60;;;10.20;;
3189;SDS011;1606;51.946;10.558;2023-11-22T13:59:00;19.00;;;10.80;;
3189;SDS011;1606;51.946;10.558;2023-11-22T14:01:28;18.70;;;10.67;;
3189;SDS011;1606;51.946;10.558;2023-11-22T14:03:57;15.50;;;10.30;;
3189;SDS011;1606;51.946;10.558;2023-11-22T14:06:26;16.97;;;13.70;;
3189;SDS011;1606;51.946;10.558;2023-11-22T14:08:54;18.53;;;11.10;;
3189;SDS011;1606;51.946;10.558;2023-11-22T14:11:22;22.13;;;13.00;;
3189;SDS011;1606;51.946;10.558;2023-11-22T14:13:51;14.30;;;10.53;;
3189;SDS011;1606;51.946;10.558;2023-11-22T14:16:19;17.03;;;9.97;;
3189;SDS011;1606;51.946;10.558;2023-11-22T14:18:47;20.30;;;9.47;;
3189;SDS011;1606;51.946;10.558;2023-11-22T14:21:17;16.70;;;10.03;;
3189;SDS011;1606;51.946;10.558;2023-11-22T14:23:45;26.67;;;12.90;;
3189;SDS011;1606;51.946;10.558;2023-11-22T14:26:14;19.30;;;13.23;;
3189;SDS011;1606;51.946;10.558;2023-11-22T14:28:45;19.20;;;10.00;;
3189;SDS011;1606;51.946;10.558;2023-11-22T14:31:13;16.47;;;9.37;;
3189;SDS011;1606;51.946;10.558;2023-11-22T14:33:42;20.67;;;12.30;;
3189;SDS011;1606;51.946;10.558;2023-11-22T14:36:10;14.43;;;8.77;;
3189;SDS011;1606;51.946;10.558;2023-11-22T14:38:42;18.37;;;10.47;;
3189;SDS011;1606;51.946;10.558;2023-11-22T14:41:10;15.97;;;9.83;;
3189;SDS011;1606;51.946;10.558;2023-11-22T14:43:39;12.97;;;9.47;;
3189;SDS011;1606;51.946;10.558;2023-11-22T14:46:07;14.80;;;10.07;;
3189;SDS011;1606;51.946;10.558;2023-11-22T14:48:35;16.07;;;10.80;;
3189;SDS011;1606;51.946;10.558;2023-11-22T14:51:04;16.47;;;11.13;;
3189;SDS011;1606;51.946;10.558;2023-11-22T14:53:35;14.70;;;9.80;;
3189;SDS011;1606;51.946;10.558;2023-11-22T14:56:07;16.33;;;10.70;;
3189;SDS011;1606;51.946;10.558;2023-11-22T14:58:38;15.80;;;10.33;;
3189;SDS011;1606;51.946;10.558;2023-11-22T15:01:12;16.77;;;11.20;;